Time;durP1;ratioP1;P1;durP2;ratioP2;P2;SDS_P1;SDS_P2;PMS_P1;PMS_P2;Temp;Humidity;BMP_temperature;BMP_pressure;BME280_temperature;BME280_humidity;BME280_pressure;Samples;Min_cycle;Max_cycle;Signal;HPM_P1;HPM_P2
2023/09/04 00:00:45;;;;;;;1999.90;999.90;;;18.40;99.90;;;;;;5032487;28;20446;-73
2023/09/04 00:03:10;;;;;;;1999.90;999.90;;;18.30;99.90;;;;;;5032223;28;20413;-72
2023/09/04 00:05:36;;;;;;;1999.90;999.90;;;18.20;99.90;;;;;;5032709;28;20206;-74
2023/09/04 00:08:02;;;;;;;1999.90;999.90;;;18.00;99.90;;;;;;5032542;28;20179;-74
2023/09/04 00:10:28;;;;;;;1999.90;999.90;;;18.00;99.90;;;;;;5033896;28;20181;-74
2023/09/04 00:12:54;;;;;;;1999.90;999.90;;;17.80;99.90;;;;;;5033305;28;20924;-74
2023/09/04 00:15:20;;;;;;;1999.90;999.90;;;17.80;99.90;;;;;;5034149;28;20210;-74
2023/09/04 00:17:49;;;;;;;1999.90;999.90;;;17.80;99.90;;;;;;5034872;28;20406;-74
2023/09/04 00:20:15;;;;;;;1999.90;999.90;;;17.80;99.90;;;;;;5034970;28;20178;-74
2023/09/04 00:22:41;;;;;;;1999.90;999.90;;;17.80;99.90;;;;;;5035182;28;20800;-74
2023/09/04 00:25:06;;;;;;;1999.90;999.90;;;17.70;99.90;;;;;;5035421;28;20458;-74
2023/09/04 00:27:32;;;;;;;1999.90;999.90;;;17.70;99.90;;;;;;5035504;28;20212;-74
2023/09/04 00:29:58;;;;;;;1999.90;999.90;;;17.80;99.90;;;;;;5035651;28;20183;-72
2023/09/04 00:32:23;;;;;;;1999.90;999.90;;;17.80;99.90;;;;;;5034858;28;20184;-74
2023/09/04 00:34:49;;;;;;;1999.90;999.90;;;17.80;99.90;;;;;;5034881;28;20203;-74
2023/09/04 00:37:15;;;;;;;1999.90;999.90;;;17.80;99.90;;;;;;5035553;28;20586;-74
2023/09/04 00:39:40;;;;;;;1999.90;999.90;;;17.70;99.90;;;;;;5035599;28;20173;-73
2023/09/04 00:42:06;;;;;;;1999.90;999.90;;;17.70;99.90;;;;;;5035276;28;20184;-72
2023/09/04 00:44:32;;;;;;;1999.90;999.90;;;17.60;99.90;;;;;;5036902;28;20201;-74
2023/09/04 00:46:59;;;;;;;1999.90;999.90;;;17.60;99.90;;;;;;5032840;28;20556;-72
2023/09/04 00:49:25;;;;;;;1999.90;999.90;;;17.50;99.90;;;;;;5031918;28;20202;-72
2023/09/04 00:51:52;;;;;;;1999.90;999.90;;;17.60;99.90;;;;;;5031569;28;20426;-72
2023/09/04 00:54:18;;;;;;;1999.90;999.90;;;17.60;99.90;;;;;;5031553;28;20450;-71
2023/09/04 00:56:47;;;;;;;1999.90;999.90;;;17.60;99.90;;;;;;5031820;28;20394;-71
2023/09/04 00:59:12;;;;;;;1999.90;999.90;;;17.50;99.90;;;;;;5031755;28;20407;-71
2023/09/04 01:01:39;;;;;;;1999.90;999.90;;;17.30;99.90;;;;;;5031467;28;20419;-71
2023/09/04 01:04:04;;;;;;;1999.90;999.90;;;17.30;99.90;;;;;;5031810;28;20492;-71
2023/09/04 01:06:30;;;;;;;1999.90;999.90;;;17.30;99.90;;;;;;5031751;28;20418;-72
2023/09/04 01:08:56;;;;;;;1999.90;999.90;;;17.30;99.90;;;;;;5031620;28;20275;-72
2023/09/04 01:11:40;;;;;;;1999.90;999.90;;;17.30;99.90;;;;;;5031398;28;20168;-72
2023/09/04 01:14:16;;;;;;;1999.90;999.90;;;17.20;99.90;;;;;;5031559;28;20202;-72
2023/09/04 01:16:42;;;;;;;1999.90;999.90;;;17.20;99.90;;;;;;5031728;28;20399;-72
2023/09/04 01:19:10;;;;;;;1999.90;999.90;;;17.10;99.90;;;;;;5033007;28;20771;-72
2023/09/04 01:21:37;;;;;;;1999.90;999.90;;;17.10;99.90;;;;;;5035264;28;20475;-71
2023/09/04 01:24:03;;;;;;;1999.90;999.90;;;17.10;99.90;;;;;;5035503;28;20479;-72
2023/09/04 01:26:43;;;;;;;1999.90;999.90;;;17.10;99.90;;;;;;5035386;28;20436;-72
2023/09/04 01:29:11;;;;;;;1999.90;999.90;;;16.90;99.90;;;;;;5035419;28;20409;-71
2023/09/04 01:31:54;;;;;;;1999.90;999.90;;;16.80;99.90;;;;;;5035177;28;21112;-72
2023/09/04 01:34:29;;;;;;;1999.90;999.90;;;16.80;99.90;;;;;;5035404;28;20453;-72
2023/09/04 01:36:57;;;;;;;1999.90;999.90;;;16.70;99.90;;;;;;5035399;28;20405;-72
2023/09/04 01:39:23;;;;;;;1999.90;999.90;;;16.70;99.90;;;;;;5035171;28;20454;-71
2023/09/04 01:41:50;;;;;;;1999.90;999.90;;;16.50;99.90;;;;;;5034833;28;20401;-72
2023/09/04 01:44:15;;;;;;;1999.90;999.90;;;16.10;99.90;;;;;;5035115;28;20418;-72
2023/09/04 01:46:41;;;;;;;1999.90;999.90;;;16.30;99.90;;;;;;5035086;28;20493;-72
2023/09/04 01:49:08;;;;;;;1999.90;999.90;;;16.30;99.90;;;;;;5035086;28;20513;-71
2023/09/04 01:51:33;;;;;;;1999.90;999.90;;;16.20;99.90;;;;;;5034771;28;20465;-72
2023/09/04 01:53:59;;;;;;;1999.90;999.90;;;16.20;99.90;;;;;;5034826;28;20821;-72
2023/09/04 01:56:25;;;;;;;1999.90;999.90;;;16.20;99.90;;;;;;5034847;28;20197;-72
2023/09/04 01:58:50;;;;;;;1999.90;999.90;;;16.20;99.90;;;;;;5034779;28;20661;-72
2023/09/04 02:01:16;;;;;;;1999.90;999.90;;;16.20;99.90;;;;;;5034482;28;20657;-72
2023/09/04 02:03:54;;;;;;;1999.90;999.90;;;16.20;99.90;;;;;;5034977;28;20247;-72
2023/09/04 02:06:20;;;;;;;1999.90;999.90;;;16.30;99.90;;;;;;5034561;28;20430;-72
2023/09/04 02:08:45;;;;;;;1999.90;999.90;;;16.30;99.90;;;;;;5034729;28;20417;-72
2023/09/04 02:11:11;;;;;;;1999.90;999.90;;;16.30;99.90;;;;;;5034347;28;20168;-72
2023/09/04 02:13:36;;;;;;;1999.90;999.90;;;16.20;99.90;;;;;;5034401;28;20168;-72
2023/09/04 02:16:02;;;;;;;1999.90;999.90;;;16.20;99.90;;;;;;5034437;28;20263;-72
2023/09/04 02:18:28;;;;;;;1999.90;999.90;;;16.10;99.90;;;;;;5034462;28;20175;-72
2023/09/04 02:20:53;;;;;;;1999.90;999.90;;;16.10;99.90;;;;;;5034160;28;20183;-72
2023/09/04 02:23:19;;;;;;;1999.90;999.90;;;16.20;99.90;;;;;;5034334;28;20222;-72
2023/09/04 02:25:47;;;;;;;1999.90;999.90;;;16.20;99.90;;;;;;5034262;28;20709;-72
2023/09/04 02:28:13;;;;;;;1999.90;999.90;;;16.20;99.90;;;;;;5034263;28;20184;-72
2023/09/04 02:30:39;;;;;;;1999.90;999.90;;;16.00;99.90;;;;;;5033244;28;20408;-71
2023/09/04 02:33:05;;;;;;;1999.90;999.90;;;15.90;99.90;;;;;;5033980;28;20174;-72
2023/09/04 02:35:30;;;;;;;1999.90;999.90;;;16.00;99.90;;;;;;5033978;28;20569;-71
2023/09/04 02:37:56;;;;;;;1999.90;999.90;;;15.90;99.90;;;;;;5034171;28;20534;-72
2023/09/04 02:40:21;;;;;;;1999.90;999.90;;;16.00;99.90;;;;;;5034111;28;20171;-72
2023/09/04 02:42:47;;;;;;;1999.90;999.90;;;15.90;99.90;;;;;;5033670;28;20174;-73
2023/09/04 02:45:13;;;;;;;1999.90;999.90;;;15.90;99.90;;;;;;5033206;28;20225;-71
2023/09/04 02:47:38;;;;;;;1999.90;999.90;;;15.90;99.90;;;;;;5033950;28;20639;-72
2023/09/04 02:50:05;;;;;;;1999.90;999.90;;;16.10;99.90;;;;;;5033883;28;20183;-71
2023/09/04 02:52:31;;;;;;;1999.90;999.90;;;16.00;99.90;;;;;;5033636;28;20245;-71
2023/09/04 02:54:57;;;;;;;1999.90;999.90;;;16.10;99.90;;;;;;5033629;28;20458;-71
2023/09/04 02:57:23;;;;;;;1999.90;999.90;;;16.00;99.90;;;;;;5037406;28;20469;-74
2023/09/04 02:59:49;;;;;;;1999.90;999.90;;;16.00;99.90;;;;;;5037543;28;20172;-74
2023/09/04 03:02:14;;;;;;;1999.90;999.90;;;16.00;99.90;;;;;;5037243;28;20495;-74
2023/09/04 03:04:40;;;;;;;1999.90;999.90;;;16.00;99.90;;;;;;5036998;28;20258;-73
2023/09/04 03:07:06;;;;;;;1999.90;999.90;;;15.90;99.90;;;;;;5036725;28;20251;-72
2023/09/04 03:09:32;;;;;;;1999.90;999.90;;;15.80;99.90;;;;;;5036693;28;20172;-73
2023/09/04 03:12:01;;;;;;;1999.90;999.90;;;15.70;99.90;;;;;;5036376;28;20421;-74
2023/09/04 03:14:27;;;;;;;1999.90;999.90;;;15.60;99.90;;;;;;5036173;28;20201;-74
2023/09/04 03:16:52;;;;;;;1999.90;999.90;;;15.60;99.90;;;;;;5036969;28;20410;-71
2023/09/04 03:19:18;;;;;;;1999.90;999.90;;;15.50;99.90;;;;;;5036982;28;20167;-73
2023/09/04 03:21:43;;;;;;;1999.90;999.90;;;15.40;99.90;;;;;;5036618;28;20177;-74
2023/09/04 03:24:09;;;;;;;1999.90;999.90;;;15.50;99.90;;;;;;5036257;28;20271;-74
2023/09/04 03:26:34;;;;;;;1999.90;999.90;;;15.20;99.90;;;;;;5036366;28;20211;-73
2023/09/04 03:29:00;;;;;;;1999.90;999.90;;;15.20;99.90;;;;;;5036549;28;20170;-74
2023/09/04 03:31:26;;;;;;;1999.90;999.90;;;15.20;99.90;;;;;;5036055;28;20183;-74
2023/09/04 03:33:51;;;;;;;1999.90;999.90;;;15.20;99.90;;;;;;5035910;28;20204;-73
2023/09/04 03:36:17;;;;;;;1999.90;999.90;;;15.20;99.90;;;;;;5035695;28;20239;-73
2023/09/04 03:38:43;;;;;;;1999.90;999.90;;;15.10;99.90;;;;;;5035529;28;20183;-73
2023/09/04 03:41:09;;;;;;;1999.90;999.90;;;15.20;99.90;;;;;;5035371;28;20170;-73
2023/09/04 03:43:34;;;;;;;1999.90;999.90;;;15.20;99.90;;;;;;5036117;28;20421;-73
2023/09/04 03:46:00;;;;;;;1999.90;999.90;;;15.20;99.90;;;;;;5036096;28;20185;-73
2023/09/04 03:48:26;;;;;;;1999.90;999.90;;;15.20;99.90;;;;;;5035585;28;20266;-73
2023/09/04 03:50:52;;;;;;;1999.90;999.90;;;15.30;99.90;;;;;;5035726;28;20415;-73
2023/09/04 03:53:17;;;;;;;1999.90;999.90;;;15.20;99.90;;;;;;5035243;28;20410;-73
2023/09/04 03:55:43;;;;;;;1999.90;999.90;;;15.10;99.90;;;;;;5035025;28;20227;-73
2023/09/04 03:58:09;;;;;;;1999.90;999.90;;;15.20;99.90;;;;;;5035613;28;20176;-73
2023/09/04 04:00:35;;;;;;;1999.90;999.90;;;15.20;99.90;;;;;;5035407;28;20248;-73
2023/09/04 04:03:00;;;;;;;1999.90;999.90;;;15.20;99.90;;;;;;5035132;28;20646;-73
2023/09/04 04:05:26;;;;;;;1999.90;999.90;;;15.20;99.90;;;;;;5034834;28;20216;-73
2023/09/04 04:07:52;;;;;;;1999.90;999.90;;;15.20;99.90;;;;;;5034728;28;20175;-73
2023/09/04 04:10:19;;;;;;;1999.90;999.90;;;15.20;99.90;;;;;;5035002;28;20557;-73
2023/09/04 04:12:44;;;;;;;1999.90;999.90;;;15.10;99.90;;;;;;5034408;28;20415;-73
2023/09/04 04:15:11;;;;;;;1999.90;999.90;;;15.10;99.90;;;;;;5034398;28;20469;-73
2023/09/04 04:17:38;;;;;;;1999.90;999.90;;;15.00;99.90;;;;;;5035147;28;20161;-73
2023/09/04 04:20:10;;;;;;;1999.90;999.90;;;15.00;99.90;;;;;;5034461;28;20407;-73
2023/09/04 04:22:36;;;;;;;1999.90;999.90;;;15.00;99.90;;;;;;5034455;28;20417;-72
2023/09/04 04:25:02;;;;;;;1999.90;999.90;;;14.90;99.90;;;;;;5034134;28;20460;-73
2023/09/04 04:27:27;;;;;;;1999.90;999.90;;;14.90;99.90;;;;;;5034303;28;20178;-73
2023/09/04 04:29:55;;;;;;;1999.90;999.90;;;14.80;99.90;;;;;;5033898;28;20542;-73
2023/09/04 04:32:21;;;;;;;1999.90;999.90;;;14.80;99.90;;;;;;5033129;28;20690;-72
2023/09/04 04:34:46;;;;;;;1999.90;999.90;;;14.80;99.90;;;;;;5033815;28;20461;-73
2023/09/04 04:37:12;;;;;;;1999.90;999.90;;;14.80;99.90;;;;;;5033981;28;20930;-73
2023/09/04 04:39:38;;;;;;;1999.90;999.90;;;14.70;99.90;;;;;;5032907;28;20275;-74
2023/09/04 04:42:04;;;;;;;1999.90;999.90;;;14.70;99.90;;;;;;5032754;28;20177;-74
2023/09/04 04:44:30;;;;;;;1999.90;999.90;;;14.70;99.90;;;;;;5032649;28;20193;-74
2023/09/04 04:46:55;;;;;;;1999.90;999.90;;;14.70;99.90;;;;;;5032471;28;20478;-73
2023/09/04 04:49:23;;;;;;;1999.90;999.90;;;14.60;99.90;;;;;;5032426;28;20978;-73
2023/09/04 04:51:51;;;;;;;1999.90;999.90;;;14.50;99.90;;;;;;5031685;28;20267;-71
2023/09/04 04:54:19;;;;;;;1999.90;999.90;;;14.20;99.90;;;;;;5033481;28;20456;-71
2023/09/04 04:56:48;;;;;;;1999.90;999.90;;;14.30;99.90;;;;;;5036033;28;20469;-72
2023/09/04 04:59:15;;;;;;;1999.90;999.90;;;14.30;99.90;;;;;;5043783;28;20475;-71
2023/09/04 05:01:41;;;;;;;1999.90;999.90;;;14.20;99.90;;;;;;5049826;28;20414;-73
2023/09/04 05:04:06;;;;;;;1999.90;999.90;;;14.40;99.90;;;;;;5046297;28;20425;-73
2023/09/04 05:06:32;;;;;;;1999.90;999.90;;;14.20;99.90;;;;;;5056975;28;20416;-73
2023/09/04 05:08:57;;;;;;;1999.90;999.90;;;14.30;99.90;;;;;;5056965;28;20633;-73
2023/09/04 05:11:23;;;;;;;1999.90;999.90;;;14.30;99.90;;;;;;5057137;28;20186;-73
2023/09/04 05:13:48;;;;;;;1999.90;999.90;;;14.50;99.90;;;;;;5054642;28;20265;-73
2023/09/04 05:16:14;;;;;;;1999.90;999.90;;;14.50;99.90;;;;;;5048064;28;20203;-73
2023/09/04 05:18:40;;;;;;;1999.90;999.90;;;14.50;99.90;;;;;;5050099;28;20633;-73
2023/09/04 05:21:06;;;;;;;1999.90;999.90;;;14.60;99.90;;;;;;5057197;28;20171;-73
2023/09/04 05:23:33;;;;;;;1999.90;999.90;;;14.60;99.90;;;;;;5057645;28;20665;-73
2023/09/04 05:25:58;;;;;;;1999.90;999.90;;;14.70;99.90;;;;;;5050586;28;20452;-73
2023/09/04 05:28:24;;;;;;;1999.90;999.90;;;14.70;99.90;;;;;;5056250;28;20994;-73
2023/09/04 05:30:50;;;;;;;1999.90;999.90;;;14.80;99.90;;;;;;5050196;28;20190;-71
2023/09/04 05:33:16;;;;;;;1999.90;999.90;;;14.80;99.90;;;;;;5048178;28;20213;-72
2023/09/04 05:35:41;;;;;;;1999.90;999.90;;;14.80;99.90;;;;;;5057295;28;20492;-74
2023/09/04 05:38:08;;;;;;;1999.90;999.90;;;14.80;99.90;;;;;;5057216;28;20180;-74
2023/09/04 05:40:33;;;;;;;1999.90;999.90;;;14.90;99.90;;;;;;5056796;28;20184;-74
2023/09/04 05:42:59;;;;;;;1999.90;999.90;;;15.00;99.90;;;;;;5056618;28;20486;-74
2023/09/04 05:45:25;;;;;;;1999.90;999.90;;;15.10;99.90;;;;;;5052736;28;20744;-74
2023/09/04 05:47:51;;;;;;;1999.90;999.90;;;15.20;99.90;;;;;;5048738;28;20662;-73
2023/09/04 05:50:17;;;;;;;1999.90;999.90;;;15.20;99.90;;;;;;5056340;28;20182;-72
2023/09/04 05:52:42;;;;;;;1999.90;999.90;;;15.20;99.90;;;;;;5056613;28;20953;-72
2023/09/04 05:55:09;;;;;;;1999.90;999.90;;;15.30;99.90;;;;;;5056619;28;20599;-74
2023/09/04 05:57:35;;;;;;;1999.90;999.90;;;15.30;99.90;;;;;;5056752;28;20174;-74
2023/09/04 06:00:01;;;;;;;1999.90;999.90;;;15.40;99.90;;;;;;5056793;28;20424;-71
2023/09/04 06:02:27;;;;;;;1999.90;999.90;;;15.30;99.90;;;;;;5056440;28;20407;-72
2023/09/04 06:04:53;;;;;;;1999.90;999.90;;;15.40;99.90;;;;;;5053347;28;20454;-72
2023/09/04 06:07:19;;;;;;;1999.90;999.90;;;15.40;99.90;;;;;;5048884;28;20177;-73
2023/09/04 06:09:45;;;;;;;1999.90;999.90;;;15.40;99.90;;;;;;5056605;28;20756;-73
2023/09/04 06:12:11;;;;;;;1999.90;999.90;;;15.40;99.90;;;;;;5055921;28;20186;-73
2023/09/04 06:14:40;;;;;;;1999.90;999.90;;;15.50;99.90;;;;;;5055751;28;20211;-73
2023/09/04 06:17:06;;;;;;;1999.90;999.90;;;15.50;99.90;;;;;;5055810;28;20400;-73
2023/09/04 06:19:32;;;;;;;1999.90;999.90;;;15.60;99.90;;;;;;5056123;28;20408;-73
2023/09/04 06:21:58;;;;;;;1999.90;999.90;;;15.70;99.90;;;;;;5056043;28;20414;-73
2023/09/04 06:24:24;;;;;;;1999.90;999.90;;;15.70;99.90;;;;;;5055845;28;20646;-73
2023/09/04 06:26:50;;;;;;;1999.90;999.90;;;15.80;99.90;;;;;;5055945;28;20403;-73
2023/09/04 06:29:19;;;;;;;1999.90;999.90;;;15.80;99.90;;;;;;5055850;28;20261;-73
2023/09/04 06:31:45;;;;;;;1999.90;999.90;;;15.90;99.90;;;;;;5055584;28;20448;-73
2023/09/04 06:34:11;;;;;;;1999.90;999.90;;;16.00;99.90;;;;;;5055693;28;20450;-73
2023/09/04 06:36:37;;;;;;;1999.90;999.90;;;16.00;99.90;;;;;;5055507;28;20767;-73
2023/09/04 06:39:03;;;;;;;1999.90;999.90;;;16.00;99.90;;;;;;5055264;28;20402;-73
2023/09/04 06:41:29;;;;;;;1999.90;999.90;;;16.10;99.90;;;;;;5054645;28;20408;-73
2023/09/04 06:43:55;;;;;;;1999.90;999.90;;;16.20;99.90;;;;;;5055079;28;20411;-73
2023/09/04 06:46:21;;;;;;;1999.90;999.90;;;16.20;99.90;;;;;;5054939;28;20480;-73
2023/09/04 06:48:46;;;;;;;1999.90;999.90;;;16.30;99.90;;;;;;5054690;28;20169;-74
2023/09/04 06:51:12;;;;;;;1999.90;999.90;;;16.40;99.90;;;;;;5041662;28;20176;-73
2023/09/04 06:53:38;;;;;;;1999.90;999.90;;;16.40;99.90;;;;;;5046497;28;20184;-73
2023/09/04 06:56:03;;;;;;;1999.90;999.90;;;16.50;99.90;;;;;;5029290;28;20196;-73
2023/09/04 06:58:29;;;;;;;1999.90;999.90;;;16.60;99.90;;;;;;5043805;28;20231;-73
2023/09/04 07:00:55;;;;;;;1999.90;999.90;;;16.70;99.90;;;;;;5035282;28;20204;-72
2023/09/04 07:03:22;;;;;;;1999.90;999.90;;;16.80;99.90;;;;;;5018973;28;20461;-73
2023/09/04 07:05:47;;;;;;;1999.90;999.90;;;16.90;99.90;;;;;;5021343;28;20295;-73
2023/09/04 07:08:13;;;;;;;1999.90;999.90;;;16.90;99.90;;;;;;5038294;28;20506;-73
2023/09/04 07:10:39;;;;;;;1999.90;999.90;;;17.00;99.90;;;;;;5027961;28;20290;-73
2023/09/04 07:13:04;;;;;;;1999.90;999.90;;;17.00;99.90;;;;;;5026363;28;20189;-73
2023/09/04 07:15:30;;;;;;;1999.90;999.90;;;17.10;99.90;;;;;;5044449;28;20208;-73
2023/09/04 07:18:00;;;;;;;1999.90;999.90;;;17.20;99.90;;;;;;5036523;28;20187;-73
2023/09/04 07:20:27;;;;;;;1999.90;999.90;;;17.20;99.90;;;;;;5042921;28;20707;-73
2023/09/04 07:22:52;;;;;;;1999.90;999.90;;;17.20;99.90;;;;;;5046643;28;20425;-73
2023/09/04 07:25:18;;;;;;;1999.90;999.90;;;17.30;99.90;;;;;;5045114;28;20548;-73
2023/09/04 07:27:44;;;;;;;1999.90;999.90;;;17.40;99.90;;;;;;5053500;28;20250;-73
2023/09/04 07:30:11;;;;;;;1999.90;999.90;;;17.40;99.90;;;;;;5053522;28;20176;-73
2023/09/04 07:32:37;;;;;;;1999.90;999.90;;;17.50;99.90;;;;;;5052997;28;20680;-72
2023/09/04 07:35:03;;;;;;;1999.90;999.90;;;17.50;99.90;;;;;;5053027;28;20539;-72
2023/09/04 07:37:29;;;;;;;1999.90;999.90;;;17.60;99.90;;;;;;5052960;28;20196;-72
2023/09/04 07:39:55;;;;;;;1999.90;999.90;;;17.70;99.90;;;;;;5052864;28;20485;-71
2023/09/04 07:42:25;;;;;;;1999.90;999.90;;;17.80;99.90;;;;;;5050439;28;20246;-71
2023/09/04 07:44:50;;;;;;;1999.90;999.90;;;17.90;99.90;;;;;;5046763;28;20232;-72
2023/09/04 07:47:16;;;;;;;1999.90;999.90;;;17.90;99.90;;;;;;5025351;28;20460;-72
2023/09/04 07:49:42;;;;;;;1999.90;999.90;;;18.00;99.90;;;;;;5044352;28;20167;-72
2023/09/04 07:52:07;;;;;;;1999.90;999.90;;;18.20;99.90;;;;;;5052377;28;20647;-72
2023/09/04 07:54:33;;;;;;;1999.90;999.90;;;18.20;99.90;;;;;;5052386;28;20276;-71
2023/09/04 07:57:04;;;;;;;1999.90;999.90;;;18.30;99.90;;;;;;5052898;28;20249;-72
2023/09/04 07:59:30;;;;;;;1999.90;999.90;;;18.40;99.90;;;;;;5052534;28;20654;-71
2023/09/04 08:01:56;;;;;;;1999.90;999.90;;;18.50;99.90;;;;;;5032849;28;20427;-71
2023/09/04 08:04:21;;;;;;;1999.90;999.90;;;18.80;99.90;;;;;;5044034;28;20420;-71
2023/09/04 08:06:47;;;;;;;1999.90;999.90;;;18.60;99.90;;;;;;5052401;28;20221;-72
2023/09/04 08:09:13;;;;;;;1999.90;999.90;;;18.70;99.90;;;;;;5052509;28;20178;-72
2023/09/04 08:11:39;;;;;;;1999.90;999.90;;;18.80;99.90;;;;;;5031012;28;20192;-71
2023/09/04 08:14:05;;;;;;;1999.90;999.90;;;18.90;99.90;;;;;;5040942;28;20457;-71
2023/09/04 08:16:30;;;;;;;1999.90;999.90;;;19.00;99.90;;;;;;5047448;28;20190;-73
2023/09/04 08:18:56;;;;;;;1999.90;999.90;;;19.10;99.90;;;;;;5035719;28;20178;-72
2023/09/04 08:21:22;;;;;;;1999.90;999.90;;;19.20;99.90;;;;;;5035796;28;20185;-71
2023/09/04 08:23:47;;;;;;;1999.90;999.90;;;19.30;99.90;;;;;;5040782;28;20170;-72
2023/09/04 08:26:14;;;;;;;1999.90;999.90;;;19.40;99.90;;;;;;5048238;28;20677;-71
2023/09/04 08:28:40;;;;;;;1999.90;999.90;;;19.50;99.90;;;;;;5046764;28;20736;-71
2023/09/04 08:31:07;;;;;;;1999.90;999.90;;;19.60;99.90;;;;;;5047100;28;20424;-72
2023/09/04 08:33:33;;;;;;;1999.90;999.90;;;19.70;99.90;;;;;;5048202;28;20498;-72
2023/09/04 08:35:59;;;;;;;1999.90;999.90;;;19.80;99.90;;;;;;5047219;28;20558;-71
2023/09/04 08:38:24;;;;;;;1999.90;999.90;;;19.80;99.90;;;;;;5047172;28;20501;-72
2023/09/04 08:40:50;;;;;;;1999.90;999.90;;;19.90;99.90;;;;;;5048072;28;20246;-72
2023/09/04 08:43:16;;;;;;;1999.90;999.90;;;20.00;99.90;;;;;;5047112;28;20185;-72
2023/09/04 08:45:43;;;;;;;1999.90;999.90;;;20.10;99.90;;;;;;5045770;28;20191;-72
2023/09/04 08:48:11;;;;;;;1999.90;999.90;;;20.10;99.90;;;;;;5028255;28;20981;-71
2023/09/04 08:50:37;;;;;;;1999.90;999.90;;;20.20;99.90;;;;;;5030064;28;20430;-71
2023/09/04 08:53:04;;;;;;;1999.90;999.90;;;20.20;99.90;;;;;;5029665;28;20865;-72
2023/09/04 08:55:33;;;;;;;1999.90;999.90;;;20.30;99.90;;;;;;5038098;28;20536;-71
2023/09/04 08:58:00;;;;;;;1999.90;999.90;;;20.40;99.90;;;;;;5047118;28;20414;-71
2023/09/04 09:00:25;;;;;;;1999.90;999.90;;;20.50;99.90;;;;;;5047129;28;20437;-72
2023/09/04 09:02:52;;;;;;;1999.90;999.90;;;20.60;99.90;;;;;;5037299;28;20440;-71
2023/09/04 09:05:18;;;;;;;1999.90;999.90;;;20.60;99.90;;;;;;5044630;28;20428;-71
2023/09/04 09:07:46;;;;;;;1999.90;999.90;;;20.60;99.90;;;;;;5032855;28;20949;-71
2023/09/04 09:10:17;;;;;;;1999.90;999.90;;;20.70;99.90;;;;;;5039373;28;20669;-72
2023/09/04 09:12:42;;;;;;;1999.90;999.90;;;20.70;99.90;;;;;;5044538;28;20914;-72
2023/09/04 09:15:08;;;;;;;1999.90;999.90;;;20.90;99.90;;;;;;5035058;28;20428;-71
2023/09/04 09:17:33;;;;;;;1999.90;999.90;;;21.00;99.90;;;;;;5045086;28;20185;-72
2023/09/04 09:19:59;;;;;;;1999.90;999.90;;;21.10;99.90;;;;;;5039311;28;20555;-71
2023/09/04 09:22:25;;;;;;;1999.90;999.90;;;21.20;99.90;;;;;;5046669;28;20172;-71
2023/09/04 09:25:01;;;;;;;1999.90;999.90;;;21.30;99.90;;;;;;5046969;28;20257;-72
2023/09/04 09:27:31;;;;;;;1999.90;999.90;;;21.40;99.90;;;;;;5047157;28;20273;-72
2023/09/04 09:29:58;;;;;;;1999.90;999.90;;;21.50;99.90;;;;;;5047670;28;20437;-72
2023/09/04 09:32:27;;;;;;;1999.90;999.90;;;21.60;99.90;;;;;;5038346;28;20430;-72
2023/09/04 09:34:54;;;;;;;1999.90;999.90;;;21.70;99.90;;;;;;5038175;28;20457;-71
2023/09/04 09:37:24;;;;;;;1999.90;999.90;;;21.80;99.90;;;;;;5047285;28;20854;-72
2023/09/04 09:39:50;;;;;;;1999.90;999.90;;;21.80;99.90;;;;;;5048464;28;20496;-71
2023/09/04 09:42:16;;;;;;;1999.90;999.90;;;22.10;99.90;;;;;;5050247;28;20483;-72
2023/09/04 09:44:42;;;;;;;1999.90;999.90;;;22.00;99.90;;;;;;5052466;28;20205;-70
2023/09/04 09:47:11;;;;;;;1999.90;999.90;;;22.00;99.90;;;;;;5054020;28;20174;-73
2023/09/04 09:49:37;;;;;;;1999.90;999.90;;;22.20;99.90;;;;;;5052965;28;20414;-73
2023/09/04 09:52:09;;;;;;;1999.90;999.90;;;22.30;99.90;;;;;;5052294;28;20912;-73
2023/09/04 09:54:35;;;;;;;1999.90;999.90;;;22.30;99.90;;;;;;5038454;28;20461;-69
2023/09/04 09:57:08;;;;;;;1999.90;999.90;;;22.40;99.90;;;;;;5044865;28;20834;-70
2023/09/04 09:59:43;;;;;;;1999.90;999.90;;;22.50;99.90;;;;;;5046143;28;20988;-74
2023/09/04 10:02:09;;;;;;;1999.90;999.90;;;22.50;99.90;;;;;;5051054;28;20438;-74
2023/09/04 10:04:35;;;;;;;1999.90;999.90;;;22.60;99.90;;;;;;5034753;28;20412;-74
2023/09/04 10:07:03;;;;;;;1999.90;999.90;;;22.60;99.90;;;;;;5035037;28;20422;-72
2023/09/04 10:09:34;;;;;;;1999.90;999.90;;;22.70;99.90;;;;;;5036034;28;20813;-74
2023/09/04 10:12:08;;;;;;;1999.90;999.90;;;22.80;99.90;;;;;;5033630;28;20462;-74
2023/09/04 10:14:42;;;;;;;1999.90;999.90;;;22.90;99.90;;;;;;5034756;28;20551;-68
2023/09/04 10:17:22;;;;;;;1999.90;999.90;;;23.10;99.90;;;;;;5044087;28;20389;-73
2023/09/04 10:19:50;;;;;;;1999.90;999.90;;;23.20;99.90;;;;;;5052851;28;20414;-71
2023/09/04 10:22:24;;;;;;;1999.90;999.90;;;23.30;99.90;;;;;;5053759;28;20959;-72
2023/09/04 10:25:22;;;;;;;1999.90;999.90;;;23.40;99.90;;;;;;5052895;28;20428;-74
2023/09/04 10:27:52;;;;;;;1999.90;999.90;;;23.50;99.90;;;;;;5050292;28;20505;-73
2023/09/04 10:30:22;;;;;;;1999.90;999.90;;;23.60;99.90;;;;;;5050177;28;20503;-71
2023/09/04 10:32:49;;;;;;;1999.90;999.90;;;23.70;99.90;;;;;;5050061;28;20397;-73
2023/09/04 10:35:15;;;;;;;1999.90;999.90;;;23.90;99.90;;;;;;5049525;28;20953;-74
2023/09/04 10:37:41;;;;;;;1999.90;999.90;;;24.00;99.90;;;;;;5051554;28;20463;-74
2023/09/04 10:40:10;;;;;;;1999.90;999.90;;;24.20;99.90;;;;;;5052265;28;20414;-74
2023/09/04 10:42:38;;;;;;;1999.90;999.90;;;24.20;99.90;;;;;;5052486;28;20215;-73
2023/09/04 10:45:14;;;;;;;1999.90;999.90;;;24.30;99.90;;;;;;5045090;28;20475;-70
2023/09/04 10:47:51;;;;;;;1999.90;999.90;;;24.40;99.90;;;;;;5031757;28;20419;-71
2023/09/04 10:50:43;;;;;;;1999.90;999.90;;;24.40;99.90;;;;;;5030599;28;20505;-71
2023/09/04 10:53:09;;;;;;;1999.90;999.90;;;24.60;99.90;;;;;;5026144;28;20493;-72
2023/09/04 10:55:37;;;;;;;1999.90;999.90;;;24.60;99.90;;;;;;5030409;28;21216;-73
2023/09/04 10:58:07;;;;;;;1999.90;999.90;;;24.80;99.90;;;;;;5031946;28;20409;-73
2023/09/04 11:00:33;;;;;;;1999.90;999.90;;;25.00;99.90;;;;;;5032041;28;20390;-74
2023/09/04 11:03:19;;;;;;;1999.90;999.90;;;25.10;99.90;;;;;;5030502;28;20386;-73
2023/09/04 11:06:04;;;;;;;1999.90;999.90;;;25.20;99.90;;;;;;5040110;28;20430;-74
2023/09/04 11:08:34;;;;;;;1999.90;999.90;;;25.40;99.90;;;;;;5032475;28;20966;-73
2023/09/04 11:11:05;;;;;;;1999.90;999.90;;;25.80;99.90;;;;;;5032628;28;20390;-74
2023/09/04 11:13:37;;;;;;;1999.90;999.90;;;25.70;99.90;;;;;;5031953;28;20426;-74
2023/09/04 11:16:04;;;;;;;1999.90;999.90;;;25.80;99.90;;;;;;5031627;28;20943;-74
2023/09/04 11:18:37;;;;;;;1999.90;999.90;;;25.80;99.90;;;;;;5031094;28;20426;-73
2023/09/04 11:21:03;;;;;;;1999.90;999.90;;;25.90;99.90;;;;;;5031505;28;20425;-73
2023/09/04 11:23:31;;;;;;;1999.90;999.90;;;26.00;99.90;;;;;;5032328;28;20397;-74
2023/09/04 11:25:57;;;;;;;1999.90;999.90;;;26.10;99.90;;;;;;5031661;28;20464;-73
2023/09/04 11:28:25;;;;;;;1999.90;999.90;;;26.20;99.10;;;;;;5032275;28;20423;-73
2023/09/04 11:30:57;;;;;;;1999.90;999.90;;;26.30;99.90;;;;;;5032479;28;20649;-74
2023/09/04 11:33:27;;;;;;;1999.90;999.90;;;26.40;99.90;;;;;;5032078;28;20427;-74
2023/09/04 11:36:01;;;;;;;1999.90;999.90;;;26.40;99.20;;;;;;5031692;28;20536;-74
2023/09/04 11:38:29;;;;;;;1999.90;999.90;;;26.60;97.90;;;;;;5031076;28;20390;-73
2023/09/04 11:40:55;;;;;;;1999.90;999.90;;;26.60;96.20;;;;;;5031298;28;20407;-73
2023/09/04 11:43:23;;;;;;;1999.90;999.90;;;26.80;96.50;;;;;;5031929;28;20430;-74
2023/09/04 11:45:55;;;;;;;1999.90;999.90;;;27.20;98.80;;;;;;5030234;28;20784;-74
2023/09/04 11:48:24;;;;;;;1999.90;999.90;;;27.60;98.70;;;;;;5030924;28;20422;-73
2023/09/04 11:50:51;;;;;;;1999.90;999.90;;;28.00;91.10;;;;;;5030940;28;20466;-74
2023/09/04 11:53:17;;;;;;;1999.90;999.90;;;28.50;88.50;;;;;;5031593;28;21070;-74
2023/09/04 11:55:43;;;;;;;1999.90;999.90;;;29.30;86.00;;;;;;5030071;28;20474;-74
2023/09/04 11:58:10;;;;;;;1999.90;999.90;;;29.90;69.50;;;;;;5029778;28;20755;-74